KDCU/DCU METAR and TAF weather

Enter ICAO airport designator
Station Type Date Time Source
KDCU METAR 2018/04/20 07:53 UTC NOAA

KDCU 200753Z AUTO 36008KT 10SM CLR 03/01 A3030 RMK AO2 SLP262 T00330011


Station Type Date Time Source
KDCU Decoded METAR 2018/04/20 07:53 UTC NOAA

PRYOR FIELD, AL, United States (KDCU) 34-39N 086-57W 176M
Apr 20, 2018 - 03:53 AM EDT / 2018.04.20 0753 UTC
Wind: from the N (360 degrees) at 9 MPH (8 KT):0
Visibility: 10 mile(s):0
Sky conditions: clear
Temperature: 37.9 F (3.3 C)
Dew Point: 34.0 F (1.1 C)
Relative Humidity: 85%
Pressure (altimeter): 30.3 in. Hg (1026 hPa)
ob: KDCU 200753Z AUTO 36008KT 10SM CLR 03/01 A3030 RMK AO2 SLP262 T00330011
cycle: 8

Station Type Date Time Source
KDCU TAF UTC NOAA

Error!


Example: see airport list